Time;durP1;ratioP1;P1;durP2;ratioP2;P2;SDS_P1;SDS_P2;PMS_P1;PMS_P2;Temp;Humidity;BMP_temperature;BMP_pressure;BME280_temperature;BME280_humidity;BME280_pressure;Samples;Min_cycle;Max_cycle;Signal;HPM_P1;HPM_P2
2022/12/09 05:00:47;;;;;;;1.73;1.58;;;18.40;99.90;;;;;;6032948;23;21155;-76
2022/12/09 05:03:15;;;;;;;2.67;2.40;;;18.40;99.90;;;;;;4975253;28;20226;-73
2022/12/09 05:05:42;;;;;;;1.83;1.52;;;18.30;99.90;;;;;;4975976;28;20229;-78
2022/12/09 05:08:08;;;;;;;1.73;1.63;;;18.30;99.90;;;;;;4975469;28;20293;-77
2022/12/09 05:10:35;;;;;;;4.57;1.90;;;18.30;99.90;;;;;;4975197;28;20575;-78
2022/12/09 05:13:02;;;;;;;3.40;1.73;;;18.30;99.90;;;;;;4975217;28;20209;-78
2022/12/09 05:15:29;;;;;;;3.00;1.90;;;18.20;99.90;;;;;;4975989;28;20210;-77
2022/12/09 05:17:57;;;;;;;4.63;1.92;;;18.20;99.90;;;;;;4975376;28;20207;-76
2022/12/09 05:20:28;;;;;;;1.83;1.73;;;18.30;99.90;;;;;;4976545;28;20225;-76
2022/12/09 05:22:55;;;;;;;5.93;2.53;;;18.20;99.90;;;;;;4977588;28;20233;-77
2022/12/09 05:25:22;;;;;;;8.05;3.42;;;18.20;99.90;;;;;;4975120;28;20227;-77
2022/12/09 05:27:49;;;;;;;4.05;2.80;;;18.30;99.90;;;;;;4975131;28;20203;-77
2022/12/09 05:30:16;;;;;;;6.43;3.47;;;18.20;99.90;;;;;;4975525;28;20234;-75
2022/12/09 05:32:43;;;;;;;5.60;3.40;;;18.20;99.90;;;;;;4975254;28;20205;-76
2022/12/09 05:35:10;;;;;;;11.68;4.55;;;18.20;99.90;;;;;;4975491;28;20203;-75
2022/12/09 05:37:38;;;;;;;18.05;4.63;;;18.20;99.90;;;;;;4975182;28;20199;-75
2022/12/09 05:40:06;;;;;;;17.13;4.60;;;18.30;99.90;;;;;;4975128;28;20311;-75
2022/12/09 05:42:33;;;;;;;18.88;4.30;;;18.30;99.90;;;;;;4975297;28;20202;-76
2022/12/09 05:44:59;;;;;;;20.85;4.55;;;18.30;99.90;;;;;;4975206;28;20218;-76
2022/12/09 05:47:26;;;;;;;15.20;4.95;;;18.30;99.90;;;;;;4975081;28;20215;-76
2022/12/09 05:49:53;;;;;;;18.85;4.63;;;18.30;99.90;;;;;;4977093;28;20570;-77
2022/12/09 05:52:19;;;;;;;21.55;4.65;;;18.40;99.90;;;;;;4975991;28;20229;-75
2022/12/09 05:54:48;;;;;;;21.75;4.78;;;18.40;99.90;;;;;;4974732;28;20203;-75
2022/12/09 05:57:14;;;;;;;16.20;8.50;;;18.40;99.90;;;;;;4974712;28;20199;-74
2022/12/09 05:59:41;;;;;;;10.77;9.15;;;18.30;99.90;;;;;;4974725;28;20230;-73
2022/12/09 06:02:08;;;;;;;11.77;9.68;;;17.80;99.90;;;;;;4974598;28;20224;-73
2022/12/09 06:04:35;;;;;;;10.88;9.65;;;17.20;98.70;;;;;;4976348;28;20313;-74
2022/12/09 06:07:01;;;;;;;16.10;7.22;;;16.70;96.30;;;;;;4978637;28;20269;-76
2022/12/09 06:09:28;;;;;;;22.17;7.53;;;16.70;99.90;;;;;;4978531;28;20203;-76
2022/12/09 06:11:56;;;;;;;14.00;6.70;;;17.00;99.90;;;;;;4978477;28;20227;-76
2022/12/09 06:14:23;;;;;;;14.60;6.72;;;17.20;99.90;;;;;;4978481;28;20210;-73
2022/12/09 06:16:50;;;;;;;14.63;6.25;;;17.50;99.90;;;;;;4978411;28;20203;-73
2022/12/09 06:19:16;;;;;;;15.68;6.30;;;17.60;99.90;;;;;;4978374;28;20217;-73
2022/12/09 06:21:43;;;;;;;11.40;5.72;;;17.70;99.90;;;;;;4978317;28;20223;-73
2022/12/09 06:24:10;;;;;;;13.88;5.20;;;17.80;99.90;;;;;;4978167;28;20574;-73
2022/12/09 06:26:37;;;;;;;14.27;5.75;;;17.80;99.90;;;;;;4978279;28;20214;-73
2022/12/09 06:29:05;;;;;;;16.67;5.43;;;17.80;99.90;;;;;;4978249;28;20574;-73
2022/12/09 06:31:31;;;;;;;11.18;5.38;;;17.80;99.90;;;;;;4978206;28;20223;-73
2022/12/09 06:33:58;;;;;;;13.52;5.22;;;17.80;99.90;;;;;;4978095;28;20207;-73
2022/12/09 06:36:25;;;;;;;10.32;4.97;;;17.90;99.90;;;;;;4978082;28;20286;-73
2022/12/09 06:38:52;;;;;;;10.43;4.40;;;17.80;99.90;;;;;;4978023;28;20203;-73
2022/12/09 06:41:19;;;;;;;11.25;5.15;;;17.90;99.90;;;;;;4977852;28;20223;-73
2022/12/09 06:43:46;;;;;;;14.27;6.22;;;17.90;99.90;;;;;;4977922;28;20203;-73
2022/12/09 06:46:15;;;;;;;17.25;4.82;;;17.80;99.90;;;;;;4977791;28;20226;-73
2022/12/09 06:48:42;;;;;;;10.50;4.47;;;17.80;99.90;;;;;;4977512;28;20678;-73
2022/12/09 06:51:09;;;;;;;8.00;4.05;;;17.90;99.90;;;;;;4977711;28;20223;-73
2022/12/09 06:53:35;;;;;;;12.00;4.63;;;17.80;99.90;;;;;;4977783;28;20214;-73
2022/12/09 06:56:03;;;;;;;15.50;4.47;;;17.80;99.90;;;;;;4977725;28;20594;-73
2022/12/09 06:58:30;;;;;;;11.98;4.93;;;17.80;99.90;;;;;;4977671;28;20207;-73
2022/12/09 07:01:04;;;;;;;10.27;4.85;;;17.90;99.90;;;;;;4977560;28;20313;-73
2022/12/09 07:03:32;;;;;;;10.10;4.22;;;17.80;99.90;;;;;;4977369;28;20261;-73
2022/12/09 07:06:00;;;;;;;10.02;4.03;;;17.80;99.90;;;;;;4977476;28;20223;-73
2022/12/09 07:08:26;;;;;;;10.88;4.78;;;17.80;99.90;;;;;;4977503;28;20218;-73
2022/12/09 07:10:53;;;;;;;8.45;3.97;;;17.80;99.90;;;;;;4977368;28;20222;-73
2022/12/09 07:13:20;;;;;;;14.55;5.10;;;17.80;99.90;;;;;;4977089;28;20697;-73
2022/12/09 07:15:46;;;;;;;6.15;4.13;;;17.80;99.90;;;;;;4977238;28;20211;-73
2022/12/09 07:18:13;;;;;;;11.57;3.92;;;17.80;99.90;;;;;;4976992;28;20199;-73
2022/12/09 07:20:41;;;;;;;8.60;3.78;;;17.80;99.90;;;;;;4977218;28;20234;-73
2022/12/09 07:23:08;;;;;;;10.73;4.15;;;17.90;99.90;;;;;;4977219;28;20211;-73
2022/12/09 07:25:35;;;;;;;7.22;3.20;;;17.80;99.90;;;;;;4977108;28;20219;-73
2022/12/09 07:28:02;;;;;;;9.90;3.80;;;17.90;99.90;;;;;;4977123;28;20203;-74
2022/12/09 07:30:29;;;;;;;13.10;3.50;;;17.80;99.90;;;;;;4976983;28;20230;-73
2022/12/09 07:32:55;;;;;;;7.30;3.70;;;17.80;99.90;;;;;;4977037;28;20206;-73
2022/12/09 07:35:22;;;;;;;7.90;4.03;;;17.80;99.90;;;;;;4977008;28;20202;-73
2022/12/09 07:37:50;;;;;;;7.47;3.53;;;17.80;99.90;;;;;;4976621;28;20598;-73
2022/12/09 07:40:17;;;;;;;10.77;3.65;;;17.80;99.90;;;;;;4976838;28;20231;-73
2022/12/09 07:42:44;;;;;;;5.53;3.55;;;17.80;99.90;;;;;;4976595;28;20670;-73
2022/12/09 07:45:11;;;;;;;7.03;3.85;;;17.80;99.90;;;;;;4976757;28;20229;-73
2022/12/09 07:47:38;;;;;;;11.48;3.40;;;17.70;99.90;;;;;;4976744;28;20214;-73
2022/12/09 07:50:06;;;;;;;9.55;4.18;;;17.80;99.90;;;;;;4976692;28;20226;-73
2022/12/09 07:52:33;;;;;;;5.30;3.50;;;17.70;99.90;;;;;;4976731;28;20199;-75
2022/12/09 07:55:01;;;;;;;7.13;3.15;;;17.80;99.90;;;;;;4976657;28;20261;-73
2022/12/09 07:57:27;;;;;;;10.07;3.53;;;17.80;99.90;;;;;;4976586;28;20226;-72
2022/12/09 07:59:55;;;;;;;10.00;3.72;;;17.70;99.90;;;;;;4976458;28;20230;-73
2022/12/09 08:02:22;;;;;;;11.43;3.80;;;17.70;99.90;;;;;;4976354;28;20281;-72
2022/12/09 08:04:49;;;;;;;7.53;3.72;;;17.70;99.90;;;;;;4976136;28;20658;-73
2022/12/09 08:07:15;;;;;;;8.30;2.78;;;17.80;99.90;;;;;;4976447;28;20203;-72
2022/12/09 08:09:42;;;;;;;12.00;3.45;;;17.80;99.90;;;;;;4976313;28;20210;-72
2022/12/09 08:12:12;;;;;;;10.93;3.40;;;17.80;99.90;;;;;;4976263;28;20242;-72
2022/12/09 08:14:38;;;;;;;7.60;3.35;;;17.80;99.90;;;;;;4976289;28;20214;-73
2022/12/09 08:17:05;;;;;;;10.48;3.70;;;17.80;99.90;;;;;;4976230;28;20233;-73
2022/12/09 08:19:32;;;;;;;11.27;3.50;;;17.80;99.90;;;;;;4976167;28;20203;-73
2022/12/09 08:21:59;;;;;;;7.57;3.30;;;17.70;99.90;;;;;;4976072;28;20233;-73
2022/12/09 09:08:28;;;;;;;50.15;14.75;;;18.00;99.90;;;;;;5104830;23;20613;-77
2022/12/09 09:10:55;;;;;;;50.80;13.80;;;18.10;99.90;;;;;;4974864;28;20701;-77
2022/12/09 09:13:22;;;;;;;54.78;14.68;;;18.00;99.90;;;;;;4975286;28;20230;-76
2022/12/09 09:15:48;;;;;;;60.30;15.20;;;18.00;99.90;;;;;;4975163;28;20207;-76
2022/12/09 09:18:15;;;;;;;50.33;14.13;;;18.00;99.90;;;;;;4975106;28;20219;-76
2022/12/09 09:20:45;;;;;;;51.30;14.23;;;18.10;99.90;;;;;;4974877;28;20609;-76
2022/12/09 09:23:11;;;;;;;45.42;12.57;;;18.10;99.90;;;;;;4975085;28;20285;-76
2022/12/09 09:25:42;;;;;;;45.58;11.70;;;18.10;99.90;;;;;;4974690;28;20222;-76
2022/12/09 09:28:08;;;;;;;41.85;11.85;;;18.10;99.90;;;;;;4975043;28;20574;-76
2022/12/09 09:30:35;;;;;;;36.42;12.07;;;18.10;99.90;;;;;;4975036;28;20207;-76
2022/12/09 09:33:02;;;;;;;35.53;10.88;;;18.10;99.90;;;;;;4975576;28;20194;-76
2022/12/09 09:35:29;;;;;;;41.08;10.75;;;18.10;99.90;;;;;;4975130;28;20229;-77
2022/12/09 09:37:56;;;;;;;36.03;10.15;;;18.10;99.90;;;;;;4974663;28;20223;-74
2022/12/09 09:40:23;;;;;;;35.05;10.07;;;18.20;99.90;;;;;;4974448;28;20610;-74
2022/12/09 09:42:53;;;;;;;28.38;9.60;;;18.20;99.90;;;;;;4974676;28;20682;-74
2022/12/09 09:45:23;;;;;;;23.38;9.32;;;18.30;99.90;;;;;;4975499;28;20222;-74
2022/12/09 09:47:54;;;;;;;24.50;8.75;;;18.30;99.90;;;;;;4975571;28;20230;-75
2022/12/09 09:50:28;;;;;;;23.77;8.77;;;18.30;99.90;;;;;;4974957;28;20666;-75
2022/12/09 09:52:55;;;;;;;21.83;8.35;;;18.30;99.90;;;;;;4974982;28;20188;-75
2022/12/09 09:55:32;;;;;;;24.35;9.68;;;18.30;99.90;;;;;;4974747;28;20573;-75
2022/12/09 09:58:10;;;;;;;22.98;8.38;;;18.40;99.90;;;;;;4974906;28;20230;-73
2022/12/09 10:00:43;;;;;;;21.33;8.35;;;18.40;99.90;;;;;;4974987;28;20198;-73
2022/12/09 10:03:13;;;;;;;14.38;8.30;;;18.40;99.90;;;;;;4974765;28;20184;-73
2022/12/09 10:05:49;;;;;;;22.65;8.35;;;18.40;99.90;;;;;;4974871;28;20218;-72
2022/12/09 10:08:32;;;;;;;28.48;8.35;;;18.40;99.90;;;;;;4974959;28;20233;-73
2022/12/09 10:11:09;;;;;;;14.85;7.30;;;18.40;99.90;;;;;;4974510;28;20211;-73
2022/12/09 10:13:46;;;;;;;27.80;9.23;;;18.40;99.90;;;;;;4974696;28;20191;-72
2022/12/09 10:16:16;;;;;;;12.80;7.45;;;18.30;99.90;;;;;;4974400;28;20582;-72
2022/12/09 10:18:59;;;;;;;23.10;8.23;;;18.30;99.90;;;;;;4974554;28;20211;-73
2022/12/09 10:21:29;;;;;;;26.52;8.32;;;18.30;99.90;;;;;;4974623;28;20198;-73
2022/12/09 10:23:57;;;;;;;17.13;7.68;;;18.30;99.90;;;;;;4974307;28;20670;-72
2022/12/09 10:26:28;;;;;;;19.52;7.90;;;18.30;99.90;;;;;;4974379;28;20227;-72
2022/12/09 10:29:04;;;;;;;18.92;7.88;;;18.30;99.90;;;;;;4974203;28;20558;-72
2022/12/09 10:31:31;;;;;;;21.17;8.07;;;18.30;99.90;;;;;;4974658;28;20190;-72
2022/12/09 10:33:58;;;;;;;23.35;7.63;;;18.30;99.90;;;;;;4974582;28;20207;-73
2022/12/09 10:36:27;;;;;;;21.23;7.18;;;18.30;99.90;;;;;;4974401;28;20195;-74
2022/12/09 10:38:54;;;;;;;26.05;7.85;;;18.40;99.90;;;;;;4974575;28;20203;-73
2022/12/09 10:44:24;;;;;;;17.80;7.18;;;18.40;99.90;;;;;;4974608;28;20318;-74
2022/12/09 10:46:57;;;;;;;20.10;8.10;;;18.50;99.90;;;;;;4974215;28;20242;-73
2022/12/09 10:49:24;;;;;;;21.77;6.78;;;18.40;99.90;;;;;;4974014;28;20191;-74
2022/12/09 10:51:52;;;;;;;15.07;6.63;;;18.50;99.90;;;;;;4976535;28;20203;-75
2022/12/09 10:54:29;;;;;;;18.98;6.50;;;18.40;99.90;;;;;;4977692;28;20213;-74
2022/12/09 10:57:06;;;;;;;13.18;6.22;;;18.50;99.90;;;;;;4977662;28;20222;-75
2022/12/09 10:59:35;;;;;;;11.27;6.60;;;18.50;99.90;;;;;;4977767;28;20594;-74
2022/12/09 11:02:17;;;;;;;22.63;6.85;;;18.50;99.90;;;;;;4977633;28;20210;-74
2022/12/09 11:04:45;;;;;;;24.55;6.50;;;18.50;99.90;;;;;;4977636;28;20193;-73
2022/12/09 11:07:16;;;;;;;16.30;6.70;;;18.50;99.90;;;;;;4977429;28;20222;-71
2022/12/09 11:09:45;;;;;;;14.18;6.72;;;18.50;99.90;;;;;;4977283;28;20211;-73
2022/12/09 11:12:18;;;;;;;16.45;6.63;;;18.50;99.90;;;;;;4977444;28;20227;-71
2022/12/09 11:14:52;;;;;;;22.42;7.85;;;18.50;99.90;;;;;;4977471;28;20194;-70
2022/12/09 11:17:22;;;;;;;23.70;8.48;;;18.50;99.90;;;;;;4976970;28;20601;-71
2022/12/09 11:19:51;;;;;;;21.88;8.02;;;18.40;99.90;;;;;;4977334;28;20206;-70
2022/12/09 11:22:27;;;;;;;32.13;8.98;;;18.50;99.90;;;;;;4977239;28;20207;-70
2022/12/09 11:24:56;;;;;;;25.13;9.80;;;18.90;99.90;;;;;;4977285;28;20278;-71
2022/12/09 11:27:28;;;;;;;36.67;8.95;;;18.40;99.90;;;;;;4977022;28;20226;-70
2022/12/09 11:30:12;;;;;;;26.40;8.95;;;18.30;99.30;;;;;;4977072;28;20210;-69
2022/12/09 11:32:59;;;;;;;27.75;8.48;;;18.10;98.60;;;;;;4977062;28;20254;-70
2022/12/09 11:35:30;;;;;;;22.95;7.97;;;18.00;98.50;;;;;;4976984;28;20187;-71
2022/12/09 11:37:59;;;;;;;22.50;9.13;;;18.00;98.70;;;;;;4976913;28;20600;-72
2022/12/09 11:40:28;;;;;;;21.63;8.65;;;18.10;98.10;;;;;;4976598;28;20672;-70
2022/12/09 11:42:56;;;;;;;20.33;8.05;;;18.00;97.50;;;;;;4976874;28;20207;-68
2022/12/09 11:45:28;;;;;;;41.88;9.00;;;18.00;97.20;;;;;;4976742;28;20207;-69
2022/12/09 11:48:04;;;;;;;23.88;9.20;;;17.90;96.70;;;;;;4976770;28;20234;-69
2022/12/09 11:50:32;;;;;;;19.85;8.10;;;17.90;96.70;;;;;;4976785;28;20187;-69
2022/12/09 11:53:13;;;;;;;18.40;7.93;;;17.80;96.60;;;;;;4976364;28;20222;-69
2022/12/09 11:55:44;;;;;;;14.60;7.63;;;17.80;96.60;;;;;;4976771;28;20198;-71
2022/12/09 11:58:14;;;;;;;17.88;7.22;;;17.80;96.50;;;;;;4976301;28;20706;-71
2022/12/09 12:00:50;;;;;;;21.95;7.53;;;17.90;96.50;;;;;;4976496;28;20566;-71
2022/12/09 12:03:21;;;;;;;16.08;8.13;;;17.90;96.70;;;;;;4976252;28;20199;-71
2022/12/09 12:05:51;;;;;;;22.30;8.20;;;17.90;96.50;;;;;;4976009;28;20647;-71
2022/12/09 12:08:23;;;;;;;14.45;7.13;;;18.00;96.50;;;;;;4976586;28;20226;-70
2022/12/09 12:10:54;;;;;;;15.68;7.32;;;18.00;96.40;;;;;;4975951;28;20219;-70
2022/12/09 12:13:26;;;;;;;23.92;7.70;;;18.00;96.40;;;;;;4976237;28;20196;-70
2022/12/09 12:16:02;;;;;;;20.50;6.85;;;18.10;96.80;;;;;;4976207;28;20194;-70
2022/12/09 12:18:33;;;;;;;23.77;6.97;;;18.30;97.20;;;;;;4976138;28;20226;-71
2022/12/09 12:21:20;;;;;;;25.38;7.07;;;18.50;97.20;;;;;;4976058;28;20262;-70
2022/12/09 12:24:19;;;;;;;14.32;5.95;;;18.60;96.70;;;;;;4975756;28;20647;-70
2022/12/09 12:26:54;;;;;;;17.30;6.57;;;18.70;96.40;;;;;;4975636;28;20281;-70
2022/12/09 12:29:33;;;;;;;13.95;6.22;;;18.70;96.40;;;;;;4975988;28;20194;-69
2022/12/09 12:32:24;;;;;;;22.05;6.03;;;18.80;96.30;;;;;;4975684;28;20570;-69
2022/12/09 12:35:01;;;;;;;19.35;6.20;;;18.90;95.60;;;;;;4975907;28;20282;-69
2022/12/09 12:37:39;;;;;;;16.67;6.25;;;19.00;95.90;;;;;;4975751;28;20219;-69
2022/12/09 12:40:14;;;;;;;9.43;5.43;;;19.10;95.70;;;;;;4975835;28;20232;-69
2022/12/09 12:48:32;;;;;;;16.77;5.30;;;19.20;95.00;;;;;;4975202;28;20227;-69
2022/12/09 12:51:14;;;;;;;22.58;6.03;;;19.20;95.20;;;;;;4975632;28;20191;-70
2022/12/09 12:53:47;;;;;;;10.23;5.38;;;19.30;95.40;;;;;;4975599;28;20190;-70
2022/12/09 12:56:19;;;;;;;27.90;6.05;;;19.40;95.40;;;;;;4975596;28;20188;-71
2022/12/09 12:58:59;;;;;;;17.13;6.35;;;19.50;95.50;;;;;;4975595;28;20187;-70
2022/12/09 13:01:29;;;;;;;8.60;4.65;;;19.50;95.40;;;;;;4975419;28;20187;-72
2022/12/09 13:04:07;;;;;;;18.90;5.07;;;19.60;95.10;;;;;;4975472;28;20191;-72
2022/12/09 13:06:41;;;;;;;10.95;5.10;;;19.50;95.00;;;;;;4974976;28;20218;-71
2022/12/09 13:09:14;;;;;;;11.05;4.85;;;19.50;94.60;;;;;;4974940;28;20191;-71
2022/12/09 13:11:55;;;;;;;10.52;5.25;;;19.40;94.40;;;;;;4975020;28;20686;-71
2022/12/09 13:14:30;;;;;;;14.93;5.38;;;19.30;94.20;;;;;;4974745;28;20190;-71
2022/12/09 13:16:58;;;;;;;9.75;4.55;;;19.30;94.10;;;;;;4975130;28;20219;-71
2022/12/09 13:19:34;;;;;;;12.98;4.95;;;19.20;93.90;;;;;;4975159;28;20551;-71
2022/12/09 13:22:01;;;;;;;9.27;5.32;;;19.10;93.90;;;;;;4975159;28;20191;-71
2022/12/09 13:24:37;;;;;;;7.22;4.85;;;19.10;93.80;;;;;;4975081;28;20203;-71
2022/12/09 13:27:17;;;;;;;15.23;5.28;;;19.00;93.80;;;;;;4974962;28;20245;-71
2022/12/09 13:30:00;;;;;;;9.73;5.22;;;18.90;93.80;;;;;;4975082;28;20186;-71
2022/12/09 13:32:51;;;;;;;8.50;4.82;;;18.80;93.80;;;;;;4974718;28;20188;-71
2022/12/09 13:35:26;;;;;;;7.70;4.57;;;18.80;93.60;;;;;;4974635;28;20569;-71
2022/12/09 13:37:58;;;;;;;6.82;4.70;;;18.70;94.00;;;;;;4974861;28;20219;-71
2022/12/09 13:40:37;;;;;;;9.52;4.47;;;18.70;93.90;;;;;;4974880;28;20218;-71
2022/12/09 13:43:10;;;;;;;11.57;4.57;;;18.60;93.90;;;;;;4974632;28;20524;-71
2022/12/09 13:45:48;;;;;;;7.20;4.97;;;18.60;94.30;;;;;;4974553;28;20198;-71
2022/12/09 13:48:47;;;;;;;13.70;4.88;;;18.60;94.60;;;;;;4974719;28;20233;-71
2022/12/09 13:51:16;;;;;;;10.70;4.30;;;18.50;94.20;;;;;;4974415;28;20213;-71
2022/12/09 13:53:50;;;;;;;9.75;4.10;;;18.50;94.60;;;;;;4974796;28;20207;-71
2022/12/09 13:56:26;;;;;;;6.30;4.53;;;18.50;94.60;;;;;;4974677;28;20192;-71
2022/12/09 13:59:38;;;;;;;10.02;4.78;;;18.50;94.60;;;;;;4975790;28;20534;-71
2022/12/09 14:02:21;;;;;;;8.07;4.60;;;18.40;94.50;;;;;;4968279;28;20206;-71
2022/12/09 14:05:06;;;;;;;6.75;3.55;;;18.40;94.50;;;;;;4974486;28;20183;-71
2022/12/09 14:07:40;;;;;;;7.20;4.72;;;18.40;94.90;;;;;;4974659;28;20227;-71
2022/12/09 14:10:36;;;;;;;11.80;4.78;;;18.30;95.00;;;;;;4974411;28;20215;-70
2022/12/09 14:13:24;;;;;;;4.60;4.20;;;18.30;94.60;;;;;;4974621;28;20191;-70
2022/12/09 14:16:10;;;;;;;6.70;4.30;;;18.30;95.10;;;;;;4974584;28;20194;-70
2022/12/09 14:18:37;;;;;;;8.07;4.20;;;18.20;95.10;;;;;;4974216;28;20219;-70
2022/12/09 14:21:27;;;;;;;6.80;4.03;;;18.20;95.10;;;;;;4974505;28;20207;-70
2022/12/09 14:24:35;;;;;;;5.55;4.50;;;18.20;95.20;;;;;;4974177;28;20202;-70
2022/12/09 14:27:14;;;;;;;7.32;4.43;;;18.10;95.10;;;;;;4976745;28;20705;-70
2022/12/09 14:29:52;;;;;;;5.68;4.38;;;18.10;95.10;;;;;;4978238;28;20191;-70
2022/12/09 14:32:22;;;;;;;6.22;4.50;;;18.00;95.20;;;;;;4977906;28;20704;-70
2022/12/09 14:35:04;;;;;;;9.20;5.22;;;18.00;95.50;;;;;;4977819;28;20206;-70
2022/12/09 14:38:04;;;;;;;6.93;4.53;;;18.00;95.50;;;;;;4978284;28;20306;-70
2022/12/09 14:40:56;;;;;;;7.07;4.63;;;18.00;95.50;;;;;;4978060;28;20191;-70
2022/12/09 14:43:50;;;;;;;6.13;4.72;;;18.00;95.40;;;;;;4977690;28;20557;-70
2022/12/09 14:46:26;;;;;;;6.13;4.40;;;18.00;95.10;;;;;;4977863;28;20198;-70
2022/12/09 14:48:57;;;;;;;9.05;4.53;;;18.00;95.70;;;;;;4977597;28;20187;-70
2022/12/09 14:51:27;;;;;;;13.73;4.88;;;18.00;95.60;;;;;;4977870;28;20191;-69
2022/12/09 14:53:58;;;;;;;18.00;5.72;;;18.00;96.00;;;;;;4977490;28;20214;-70
2022/12/09 14:56:29;;;;;;;16.02;5.43;;;18.10;96.60;;;;;;4977678;28;20193;-70
2022/12/09 14:59:00;;;;;;;8.75;5.30;;;18.20;97.60;;;;;;4977679;28;20187;-70
2022/12/09 15:01:27;;;;;;;9.82;5.10;;;18.40;98.20;;;;;;4977741;28;20194;-73
2022/12/09 15:03:56;;;;;;;10.55;5.28;;;18.70;98.40;;;;;;4978749;28;20207;-72
2022/12/09 15:06:25;;;;;;;10.98;5.05;;;18.80;98.50;;;;;;4978623;28;20372;-72
2022/12/09 15:08:55;;;;;;;16.45;5.63;;;19.00;98.40;;;;;;4978666;28;20203;-72
2022/12/09 15:11:24;;;;;;;8.35;5.10;;;19.10;98.30;;;;;;4979268;28;20623;-72
2022/12/09 15:13:53;;;;;;;15.55;5.90;;;19.30;98.30;;;;;;4977604;28;20213;-72
2022/12/09 15:16:24;;;;;;;7.80;4.82;;;19.30;98.40;;;;;;4977382;28;20235;-72
2022/12/09 15:18:52;;;;;;;8.68;4.90;;;19.50;98.50;;;;;;4977320;28;20207;-72
2022/12/09 15:21:27;;;;;;;10.50;4.68;;;19.50;98.40;;;;;;4977439;28;20203;-71
2022/12/09 15:23:54;;;;;;;11.25;5.10;;;19.60;98.30;;;;;;4977250;28;20187;-71
2022/12/09 15:26:24;;;;;;;9.57;5.43;;;19.60;98.20;;;;;;4976936;28;20199;-71
2022/12/09 15:28:55;;;;;;;10.50;5.45;;;19.60;98.10;;;;;;4978033;28;20199;-74
2022/12/09 15:31:25;;;;;;;13.60;5.32;;;19.70;98.10;;;;;;4978091;28;20602;-72
2022/12/09 15:33:55;;;;;;;7.53;4.65;;;19.70;98.00;;;;;;4979162;28;20242;-72
2022/12/09 15:36:25;;;;;;;8.00;4.97;;;19.70;98.00;;;;;;4979213;28;20202;-72
2022/12/09 15:38:56;;;;;;;10.82;5.07;;;19.80;97.90;;;;;;4978983;28;20195;-72
2022/12/09 15:44:15;;;;;;;9.70;4.57;;;19.90;97.60;;;;;;4978478;28;20547;-72
2022/12/09 15:46:45;;;;;;;7.35;5.00;;;20.00;97.50;;;;;;4978558;28;20710;-72
2022/12/09 15:49:16;;;;;;;6.35;4.50;;;19.90;97.40;;;;;;4978791;28;20195;-72
2022/12/09 15:51:45;;;;;;;8.43;4.65;;;20.00;97.50;;;;;;4978586;28;20191;-72
2022/12/09 15:54:18;;;;;;;10.45;4.63;;;20.00;97.50;;;;;;4978124;28;20229;-72
2022/12/09 15:56:50;;;;;;;6.43;4.90;;;20.10;97.40;;;;;;4978140;28;20229;-72
2022/12/09 15:59:21;;;;;;;10.82;5.03;;;20.20;97.30;;;;;;4976709;28;20202;-72
2022/12/09 16:01:51;;;;;;;8.18;4.88;;;20.30;97.20;;;;;;4976330;28;20187;-72
2022/12/09 16:04:19;;;;;;;9.25;5.05;;;20.20;97.10;;;;;;4976510;28;20190;-72
2022/12/09 16:06:47;;;;;;;14.10;4.85;;;20.60;97.20;;;;;;4976725;28;20226;-72
2022/12/09 16:09:16;;;;;;;10.15;5.07;;;20.10;96.80;;;;;;4976288;28;20213;-72
2022/12/09 16:11:46;;;;;;;6.13;4.35;;;20.00;96.80;;;;;;4976582;28;20183;-72
2022/12/09 16:14:14;;;;;;;7.43;4.78;;;20.00;96.70;;;;;;4976276;28;20643;-72
2022/12/09 16:16:46;;;;;;;10.13;4.57;;;20.00;96.70;;;;;;4976227;28;20245;-73
2022/12/09 16:19:24;;;;;;;5.22;4.65;;;20.00;96.70;;;;;;4976011;28;20222;-72
2022/12/09 16:21:54;;;;;;;6.18;4.70;;;20.00;96.50;;;;;;4975846;28;20666;-72
2022/12/09 16:24:21;;;;;;;5.22;4.18;;;20.00;96.40;;;;;;4976095;28;20218;-72
2022/12/09 16:26:50;;;;;;;5.93;4.22;;;20.00;96.30;;;;;;4975914;28;20230;-72
2022/12/09 16:29:24;;;;;;;4.65;4.18;;;19.90;96.20;;;;;;4975722;28;20524;-72
2022/12/09 16:32:21;;;;;;;9.35;4.65;;;20.00;96.10;;;;;;4976153;28;20191;-72
2022/12/09 16:34:50;;;;;;;6.60;4.57;;;20.00;95.70;;;;;;4975973;28;20187;-72
2022/12/09 16:37:30;;;;;;;5.93;4.13;;;20.00;96.10;;;;;;4975469;28;20583;-72
2022/12/09 16:39:57;;;;;;;4.63;4.05;;;20.00;95.60;;;;;;4975683;28;20258;-72
2022/12/09 16:42:29;;;;;;;6.63;4.22;;;20.10;95.90;;;;;;4975988;28;20206;-72
2022/12/09 16:45:28;;;;;;;4.35;3.92;;;20.00;95.80;;;;;;4975782;28;20603;-72
2022/12/09 16:47:57;;;;;;;6.07;4.05;;;20.20;95.90;;;;;;4942974;28;20693;-73
2022/12/09 16:50:29;;;;;;;4.63;3.88;;;20.10;95.70;;;;;;4975008;28;20689;-73
2022/12/09 16:52:57;;;;;;;6.40;3.70;;;20.00;95.60;;;;;;4975678;28;20194;-73
2022/12/09 16:55:28;;;;;;;6.63;4.07;;;20.00;95.50;;;;;;4975507;28;20199;-74
2022/12/09 16:57:55;;;;;;;5.65;3.60;;;20.00;95.40;;;;;;4975611;28;20223;-74
2022/12/09 17:00:23;;;;;;;3.72;3.42;;;20.10;95.40;;;;;;4975584;28;20210;-74
2022/12/09 17:02:53;;;;;;;4.25;3.95;;;20.20;95.40;;;;;;4975799;28;20206;-73
2022/12/09 17:05:21;;;;;;;6.07;3.53;;;20.10;95.40;;;;;;4975531;28;20188;-73
2022/12/09 17:07:48;;;;;;;5.35;3.97;;;20.10;95.70;;;;;;4975117;28;20698;-73
2022/12/09 17:10:16;;;;;;;3.83;3.58;;;20.00;95.30;;;;;;4975056;28;20225;-73
2022/12/09 17:12:43;;;;;;;7.85;4.20;;;20.00;95.30;;;;;;4975260;28;20205;-73
2022/12/09 17:15:13;;;;;;;3.85;3.50;;;20.00;95.10;;;;;;4975232;28;20547;-73
2022/12/09 17:17:40;;;;;;;3.40;3.15;;;20.10;95.20;;;;;;4974818;28;20591;-73
2022/12/09 17:20:08;;;;;;;4.57;3.53;;;20.20;95.10;;;;;;4975210;28;20238;-74
2022/12/09 17:22:36;;;;;;;4.18;3.72;;;20.10;95.00;;;;;;4974891;28;20238;-74
2022/12/09 17:25:04;;;;;;;4.70;3.80;;;20.20;95.00;;;;;;4975183;28;20191;-74
2022/12/09 17:27:31;;;;;;;5.35;3.88;;;20.10;94.90;;;;;;4976704;28;20784;-74
2022/12/09 17:29:57;;;;;;;4.10;3.72;;;20.00;94.90;;;;;;4974698;28;20574;-74
2022/12/09 17:32:24;;;;;;;3.70;2.85;;;20.00;94.90;;;;;;4975006;28;20218;-74
2022/12/09 17:34:53;;;;;;;3.85;3.20;;;20.00;94.90;;;;;;4975032;28;20301;-73
2022/12/09 17:37:20;;;;;;;5.57;3.70;;;20.00;94.90;;;;;;4975047;28;20223;-74
2022/12/09 17:39:49;;;;;;;4.20;3.28;;;20.10;95.00;;;;;;4975003;28;20199;-74
2022/12/09 17:42:15;;;;;;;3.38;3.08;;;20.10;94.90;;;;;;4974852;28;20213;-74
2022/12/09 17:44:42;;;;;;;3.30;3.10;;;20.10;94.90;;;;;;4974848;28;20199;-75
2022/12/09 17:47:09;;;;;;;3.55;3.10;;;20.10;94.90;;;;;;4974692;28;20229;-75
2022/12/09 17:49:36;;;;;;;5.55;3.63;;;20.20;94.90;;;;;;4974771;28;20211;-75
2022/12/09 17:52:03;;;;;;;4.32;3.92;;;20.20;94.80;;;;;;4974697;28;20211;-75
2022/12/09 17:54:29;;;;;;;8.82;3.60;;;20.20;94.70;;;;;;4974748;28;20202;-75
2022/12/09 17:56:57;;;;;;;8.70;4.15;;;20.20;94.70;;;;;;4974608;28;20222;-75
2022/12/09 17:59:24;;;;;;;8.50;3.95;;;20.30;94.70;;;;;;4974917;28;20206;-75
2022/12/09 18:01:51;;;;;;;5.93;3.63;;;20.20;94.70;;;;;;4978429;28;20703;-73
2022/12/09 18:04:18;;;;;;;6.40;4.28;;;20.30;94.80;;;;;;4978632;28;20205;-73
2022/12/09 18:06:46;;;;;;;13.50;4.07;;;20.30;95.10;;;;;;4978880;28;20223;-72
2022/12/09 18:09:14;;;;;;;6.05;3.85;;;20.30;94.90;;;;;;4978292;28;20226;-71
2022/12/09 18:11:41;;;;;;;9.27;4.57;;;20.30;94.70;;;;;;4978463;28;20191;-71
2022/12/09 18:14:10;;;;;;;10.90;4.50;;;20.60;94.70;;;;;;4978199;28;20217;-72
2022/12/09 18:16:38;;;;;;;6.13;3.65;;;20.40;94.90;;;;;;4979921;28;20209;-72
2022/12/09 18:19:08;;;;;;;6.82;4.32;;;20.30;94.60;;;;;;4981250;28;20199;-72
2022/12/09 18:21:35;;;;;;;5.72;3.70;;;20.40;94.80;;;;;;4982247;28;20188;-72
2022/12/09 18:24:02;;;;;;;9.40;4.47;;;20.40;94.90;;;;;;4980761;28;20214;-72
2022/12/09 18:26:29;;;;;;;11.20;4.32;;;20.40;95.00;;;;;;4978157;28;20269;-73
2022/12/09 18:28:57;;;;;;;7.00;4.13;;;20.50;95.00;;;;;;4978063;28;20222;-74
2022/12/09 18:31:25;;;;;;;12.73;4.47;;;20.50;95.10;;;;;;4977810;28;20704;-72
2022/12/09 18:33:52;;;;;;;9.95;4.35;;;20.60;95.30;;;;;;4978195;28;20202;-74
2022/12/09 18:36:21;;;;;;;13.25;4.60;;;20.60;95.30;;;;;;4978256;28;20184;-75
2022/12/09 18:38:48;;;;;;;10.30;4.25;;;20.60;95.30;;;;;;4979128;28;20293;-72
2022/12/09 18:41:18;;;;;;;9.20;3.78;;;20.60;95.50;;;;;;4978389;28;20241;-74
2022/12/09 18:43:47;;;;;;;6.70;3.72;;;20.60;95.50;;;;;;4978541;28;20190;-74
2022/12/09 18:46:16;;;;;;;7.07;4.05;;;20.60;95.60;;;;;;4979053;28;20269;-74
2022/12/09 18:48:44;;;;;;;8.38;4.18;;;20.70;95.60;;;;;;4978572;28;20222;-72
2022/12/09 18:51:15;;;;;;;7.05;4.00;;;20.70;95.70;;;;;;4977940;28;20215;-72
2022/12/09 18:53:42;;;;;;;8.57;4.32;;;20.70;95.80;;;;;;4977881;28;20191;-72
2022/12/09 18:56:09;;;;;;;7.75;3.88;;;20.70;96.00;;;;;;4978036;28;20690;-73